Terminal Aerodrome Forecast
Issued by NWS Albany, NY

Home | Current Version | Previous Version | Text Only | Print | Product List | Glossary On
Versions: 1 2 3 4 5 6 7 8 9 10 11 12 13 14 15 16 17
322
FTUS41 KALY 260057 AAA
TAFPOU
TAF AMD
KPOU 260057Z 2601/2624 02006KT P6SM -RA OVC016
     FM260700 04007KT 6SM -RA OVC010
     FM261100 03006KT P6SM OVC010 PROB30 2611/2617 4SM -RA OVC003=

USA.gov is the U.S. government's official web portal to all federal, state and local government web resources and services.